sensor_id;sensor_type;location;lat;lon;timestamp;temperature;humidity
19947;DHT22;10135;50.702;7.276;2024-01-30T06:00:17;10.40;63.00
19947;DHT22;10135;50.702;7.276;2024-01-30T06:02:17;10.40;62.80
19947;DHT22;10135;50.702;7.276;2024-01-30T06:04:18;10.40;62.90
19947;DHT22;10135;50.702;7.276;2024-01-30T06:06:19;10.40;63.00
19947;DHT22;10135;50.702;7.276;2024-01-30T06:08:20;10.40;63.00
19947;DHT22;10135;50.702;7.276;2024-01-30T06:10:20;10.30;63.00
19947;DHT22;10135;50.702;7.276;2024-01-30T06:12:21;10.40;63.10
19947;DHT22;10135;50.702;7.276;2024-01-30T06:14:22;10.30;63.10
19947;DHT22;10135;50.702;7.276;2024-01-30T06:16:22;10.30;63.00
19947;DHT22;10135;50.702;7.276;2024-01-30T06:18:23;10.30;63.20
19947;DHT22;10135;50.702;7.276;2024-01-30T06:20:24;10.30;63.20
19947;DHT22;10135;50.702;7.276;2024-01-30T06:22:24;10.30;63.20
19947;DHT22;10135;50.702;7.276;2024-01-30T06:24:25;10.30;63.10
19947;DHT22;10135;50.702;7.276;2024-01-30T06:26:26;10.30;63.20
19947;DHT22;10135;50.702;7.276;2024-01-30T06:28:26;10.30;63.20
19947;DHT22;10135;50.702;7.276;2024-01-30T06:30:27;10.30;63.20
19947;DHT22;10135;50.702;7.276;2024-01-30T06:32:28;10.30;63.20
19947;DHT22;10135;50.702;7.276;2024-01-30T06:34:29;10.30;63.20
19947;DHT22;10135;50.702;7.276;2024-01-30T06:36:29;10.30;63.20
19947;DHT22;10135;50.702;7.276;2024-01-30T06:38:30;10.30;63.20
19947;DHT22;10135;50.702;7.276;2024-01-30T06:40:31;10.20;63.20
19947;DHT22;10135;50.702;7.276;2024-01-30T06:42:32;10.20;63.20
19947;DHT22;10135;50.702;7.276;2024-01-30T06:44:32;10.20;63.20
19947;DHT22;10135;50.702;7.276;2024-01-30T06:46:33;10.20;63.20
19947;DHT22;10135;50.702;7.276;2024-01-30T06:48:34;10.20;63.20
19947;DHT22;10135;50.702;7.276;2024-01-30T06:50:35;10.10;63.20
19947;DHT22;10135;50.702;7.276;2024-01-30T06:52:35;10.10;63.20
19947;DHT22;10135;50.702;7.276;2024-01-30T06:54:36;10.10;63.30
19947;DHT22;10135;50.702;7.276;2024-01-30T06:56:37;10.10;63.30
19947;DHT22;10135;50.702;7.276;2024-01-30T06:58:37;10.10;63.40
19947;DHT22;10135;50.702;7.276;2024-01-30T07:00:39;10.10;63.40
19947;DHT22;10135;50.702;7.276;2024-01-30T07:02:42;10.00;63.40
19947;DHT22;10135;50.702;7.276;2024-01-30T07:04:43;10.10;63.40
19947;DHT22;10135;50.702;7.276;2024-01-30T07:06:44;10.00;63.40
19947;DHT22;10135;50.702;7.276;2024-01-30T07:08:44;10.00;63.50
19947;DHT22;10135;50.702;7.276;2024-01-30T07:10:45;10.00;63.60
19947;DHT22;10135;50.702;7.276;2024-01-30T07:12:46;10.00;63.50
19947;DHT22;10135;50.702;7.276;2024-01-30T07:14:46;10.00;63.50
19947;DHT22;10135;50.702;7.276;2024-01-30T07:16:47;10.00;63.60
19947;DHT22;10135;50.702;7.276;2024-01-30T07:18:48;10.10;63.60
19947;DHT22;10135;50.702;7.276;2024-01-30T07:20:49;10.10;63.60
19947;DHT22;10135;50.702;7.276;2024-01-30T07:22:50;10.00;63.70
19947;DHT22;10135;50.702;7.276;2024-01-30T07:24:51;10.10;63.80
19947;DHT22;10135;50.702;7.276;2024-01-30T07:26:52;10.00;63.70
19947;DHT22;10135;50.702;7.276;2024-01-30T07:28:56;10.00;63.70
19947;DHT22;10135;50.702;7.276;2024-01-30T07:30:56;10.00;63.80
19947;DHT22;10135;50.702;7.276;2024-01-30T07:32:57;10.10;63.80
19947;DHT22;10135;50.702;7.276;2024-01-30T07:34:58;10.10;63.80
19947;DHT22;10135;50.702;7.276;2024-01-30T07:36:59;10.10;63.90
19947;DHT22;10135;50.702;7.276;2024-01-30T07:38:59;10.10;63.80
19947;DHT22;10135;50.702;7.276;2024-01-30T07:41:00;10.10;63.80
19947;DHT22;10135;50.702;7.276;2024-01-30T07:43:00;10.10;63.80
19947;DHT22;10135;50.702;7.276;2024-01-30T07:45:03;10.10;63.90
19947;DHT22;10135;50.702;7.276;2024-01-30T07:47:05;10.10;63.90
19947;DHT22;10135;50.702;7.276;2024-01-30T07:49:05;10.10;63.90
19947;DHT22;10135;50.702;7.276;2024-01-30T07:51:06;10.20;64.00
19947;DHT22;10135;50.702;7.276;2024-01-30T07:53:07;10.20;64.10
19947;DHT22;10135;50.702;7.276;2024-01-30T07:55:07;10.20;64.10
19947;DHT22;10135;50.702;7.276;2024-01-30T07:57:09;10.20;64.10
19947;DHT22;10135;50.702;7.276;2024-01-30T07:59:11;10.30;64.10
19947;DHT22;10135;50.702;7.276;2024-01-30T08:01:11;10.30;64.10
19947;DHT22;10135;50.702;7.276;2024-01-30T08:03:12;10.30;64.20
19947;DHT22;10135;50.702;7.276;2024-01-30T08:05:13;10.30;64.10
19947;DHT22;10135;50.702;7.276;2024-01-30T08:07:15;10.30;64.10
19947;DHT22;10135;50.702;7.276;2024-01-30T08:09:17;10.40;64.30
19947;DHT22;10135;50.702;7.276;2024-01-30T08:11:20;10.40;64.20
19947;DHT22;10135;50.702;7.276;2024-01-30T08:13:25;10.40;64.20
19947;DHT22;10135;50.702;7.276;2024-01-30T08:15:26;10.40;64.20
19947;DHT22;10135;50.702;7.276;2024-01-30T08:17:27;10.40;64.10
19947;DHT22;10135;50.702;7.276;2024-01-30T08:19:27;10.50;64.10
19947;DHT22;10135;50.702;7.276;2024-01-30T08:21:28;10.50;64.20
19947;DHT22;10135;50.702;7.276;2024-01-30T08:23:29;10.50;64.10
19947;DHT22;10135;50.702;7.276;2024-01-30T08:25:29;10.50;64.20
19947;DHT22;10135;50.702;7.276;2024-01-30T08:27:30;10.60;64.20
19947;DHT22;10135;50.702;7.276;2024-01-30T08:29:30;10.60;64.30
19947;DHT22;10135;50.702;7.276;2024-01-30T08:31:31;10.60;64.30
19947;DHT22;10135;50.702;7.276;2024-01-30T08:33:33;10.70;64.40
19947;DHT22;10135;50.702;7.276;2024-01-30T08:35:33;10.70;64.40
19947;DHT22;10135;50.702;7.276;2024-01-30T08:37:34;10.70;64.40
19947;DHT22;10135;50.702;7.276;2024-01-30T08:39:35;10.80;64.40
19947;DHT22;10135;50.702;7.276;2024-01-30T08:41:35;10.80;64.30
19947;DHT22;10135;50.702;7.276;2024-01-30T08:43:36;10.80;64.40
19947;DHT22;10135;50.702;7.276;2024-01-30T08:45:36;10.90;64.30
19947;DHT22;10135;50.702;7.276;2024-01-30T08:47:37;10.90;64.30
19947;DHT22;10135;50.702;7.276;2024-01-30T08:49:38;11.00;64.40
19947;DHT22;10135;50.702;7.276;2024-01-30T08:51:41;11.00;64.30
19947;DHT22;10135;50.702;7.276;2024-01-30T08:53:42;11.00;64.40
19947;DHT22;10135;50.702;7.276;2024-01-30T08:55:43;11.00;64.30
19947;DHT22;10135;50.702;7.276;2024-01-30T08:57:44;11.10;64.40
19947;DHT22;10135;50.702;7.276;2024-01-30T08:59:44;11.10;64.30
19947;DHT22;10135;50.702;7.276;2024-01-30T09:01:46;11.10;64.30
19947;DHT22;10135;50.702;7.276;2024-01-30T09:03:47;11.10;64.30
19947;DHT22;10135;50.702;7.276;2024-01-30T09:05:48;11.20;64.30
19947;DHT22;10135;50.702;7.276;2024-01-30T09:07:48;11.20;64.20
19947;DHT22;10135;50.702;7.276;2024-01-30T09:09:49;11.20;64.30
19947;DHT22;10135;50.702;7.276;2024-01-30T09:11:49;11.20;64.30
19947;DHT22;10135;50.702;7.276;2024-01-30T09:13:50;11.30;64.30
19947;DHT22;10135;50.702;7.276;2024-01-30T09:15:51;11.30;64.20
19947;DHT22;10135;50.702;7.276;2024-01-30T09:17:51;11.30;64.30
19947;DHT22;10135;50.702;7.276;2024-01-30T09:19:52;11.30;64.20
19947;DHT22;10135;50.702;7.276;2024-01-30T09:21:53;11.40;64.20
19947;DHT22;10135;50.702;7.276;2024-01-30T09:24:02;11.40;64.40
19947;DHT22;10135;50.702;7.276;2024-01-30T09:26:06;11.40;64.40
19947;DHT22;10135;50.702;7.276;2024-01-30T09:28:07;11.50;64.20
19947;DHT22;10135;50.702;7.276;2024-01-30T09:30:08;11.50;64.30
19947;DHT22;10135;50.702;7.276;2024-01-30T09:32:09;11.60;64.40
19947;DHT22;10135;50.702;7.276;2024-01-30T09:34:09;11.60;64.40
19947;DHT22;10135;50.702;7.276;2024-01-30T09:36:10;11.60;64.40
19947;DHT22;10135;50.702;7.276;2024-01-30T09:38:11;11.70;64.40
19947;DHT22;10135;50.702;7.276;2024-01-30T09:40:11;11.80;64.50
19947;DHT22;10135;50.702;7.276;2024-01-30T09:42:21;11.80;64.40
19947;DHT22;10135;50.702;7.276;2024-01-30T09:44:26;11.90;64.30
19947;DHT22;10135;50.702;7.276;2024-01-30T09:46:30;11.90;64.30
19947;DHT22;10135;50.702;7.276;2024-01-30T09:48:33;12.00;64.20
19947;DHT22;10135;50.702;7.276;2024-01-30T09:50:35;12.00;64.00
19947;DHT22;10135;50.702;7.276;2024-01-30T09:52:40;12.00;64.00
19947;DHT22;10135;50.702;7.276;2024-01-30T09:54:41;12.10;64.10
19947;DHT22;10135;50.702;7.276;2024-01-30T09:56:43;12.10;64.20
19947;DHT22;10135;50.702;7.276;2024-01-30T09:58:44;12.20;64.20
19947;DHT22;10135;50.702;7.276;2024-01-30T10:00:45;12.20;64.30
19947;DHT22;10135;50.702;7.276;2024-01-30T10:02:45;12.30;64.50
19947;DHT22;10135;50.702;7.276;2024-01-30T10:04:51;12.40;64.50
19947;DHT22;10135;50.702;7.276;2024-01-30T10:06:52;12.50;64.60
19947;DHT22;10135;50.702;7.276;2024-01-30T10:08:53;12.50;64.40
19947;DHT22;10135;50.702;7.276;2024-01-30T10:10:53;12.60;64.40
19947;DHT22;10135;50.702;7.276;2024-01-30T10:12:54;12.70;64.40
19947;DHT22;10135;50.702;7.276;2024-01-30T10:14:56;12.80;64.30
19947;DHT22;10135;50.702;7.276;2024-01-30T10:16:58;13.00;64.30
19947;DHT22;10135;50.702;7.276;2024-01-30T10:18:59;13.00;64.20
19947;DHT22;10135;50.702;7.276;2024-01-30T10:21:00;13.10;64.20
19947;DHT22;10135;50.702;7.276;2024-01-30T10:23:01;13.20;64.20
19947;DHT22;10135;50.702;7.276;2024-01-30T10:25:02;13.30;64.10
19947;DHT22;10135;50.702;7.276;2024-01-30T10:27:05;13.30;63.90
19947;DHT22;10135;50.702;7.276;2024-01-30T10:29:06;13.40;63.90
19947;DHT22;10135;50.702;7.276;2024-01-30T10:31:07;13.50;63.90
19947;DHT22;10135;50.702;7.276;2024-01-30T10:33:07;13.50;63.90
19947;DHT22;10135;50.702;7.276;2024-01-30T10:35:08;13.60;63.90
19947;DHT22;10135;50.702;7.276;2024-01-30T10:37:10;13.60;63.70
19947;DHT22;10135;50.702;7.276;2024-01-30T10:39:17;13.70;63.70
19947;DHT22;10135;50.702;7.276;2024-01-30T10:41:26;13.80;63.80
19947;DHT22;10135;50.702;7.276;2024-01-30T10:43:36;13.90;63.80
19947;DHT22;10135;50.702;7.276;2024-01-30T10:45:44;13.90;63.70
19947;DHT22;10135;50.702;7.276;2024-01-30T10:47:52;14.00;63.60
19947;DHT22;10135;50.702;7.276;2024-01-30T10:49:57;14.00;63.60
19947;DHT22;10135;50.702;7.276;2024-01-30T10:51:58;14.10;63.60
19947;DHT22;10135;50.702;7.276;2024-01-30T10:54:00;14.10;63.50
19947;DHT22;10135;50.702;7.276;2024-01-30T10:56:02;14.20;63.50
19947;DHT22;10135;50.702;7.276;2024-01-30T10:58:05;14.20;63.30
19947;DHT22;10135;50.702;7.276;2024-01-30T11:00:13;14.30;63.30
19947;DHT22;10135;50.702;7.276;2024-01-30T11:02:16;14.30;63.10
19947;DHT22;10135;50.702;7.276;2024-01-30T11:04:17;14.30;63.10
19947;DHT22;10135;50.702;7.276;2024-01-30T11:06:30;14.30;63.10
19947;DHT22;10135;50.702;7.276;2024-01-30T11:08:34;14.30;63.00
19947;DHT22;10135;50.702;7.276;2024-01-30T11:10:45;14.30;62.90
19947;DHT22;10135;50.702;7.276;2024-01-30T11:12:47;14.30;62.90
19947;DHT22;10135;50.702;7.276;2024-01-30T11:14:48;14.30;62.90
19947;DHT22;10135;50.702;7.276;2024-01-30T11:16:49;14.30;62.90
19947;DHT22;10135;50.702;7.276;2024-01-30T11:18:50;14.40;63.00
19947;DHT22;10135;50.702;7.276;2024-01-30T11:20:56;14.40;63.00
19947;DHT22;10135;50.702;7.276;2024-01-30T11:22:59;14.40;63.00
19947;DHT22;10135;50.702;7.276;2024-01-30T11:25:02;14.40;62.90
19947;DHT22;10135;50.702;7.276;2024-01-30T11:27:08;14.40;62.90
19947;DHT22;10135;50.702;7.276;2024-01-30T11:29:13;14.40;62.90
19947;DHT22;10135;50.702;7.276;2024-01-30T11:31:19;14.40;62.80
19947;DHT22;10135;50.702;7.276;2024-01-30T11:33:29;14.40;62.90
19947;DHT22;10135;50.702;7.276;2024-01-30T11:35:34;14.40;62.80
19947;DHT22;10135;50.702;7.276;2024-01-30T11:37:37;14.40;62.80
19947;DHT22;10135;50.702;7.276;2024-01-30T11:39:41;14.40;62.90
19947;DHT22;10135;50.702;7.276;2024-01-30T11:41:44;14.30;62.90
19947;DHT22;10135;50.702;7.276;2024-01-30T11:43:55;14.30;62.90
19947;DHT22;10135;50.702;7.276;2024-01-30T11:45:55;14.30;62.60
19947;DHT22;10135;50.702;7.276;2024-01-30T11:47:57;14.40;62.80
19947;DHT22;10135;50.702;7.276;2024-01-30T11:49:58;14.30;62.80
19947;DHT22;10135;50.702;7.276;2024-01-30T11:51:59;14.30;62.80
19947;DHT22;10135;50.702;7.276;2024-01-30T11:53:59;14.30;62.80
19947;DHT22;10135;50.702;7.276;2024-01-30T11:56:00;14.30;62.80
19947;DHT22;10135;50.702;7.276;2024-01-30T11:58:01;14.30;62.60
19947;DHT22;10135;50.702;7.276;2024-01-30T12:00:03;14.30;62.70
19947;DHT22;10135;50.702;7.276;2024-01-30T12:02:15;14.30;62.60
19947;DHT22;10135;50.702;7.276;2024-01-30T12:04:17;14.30;62.60
19947;DHT22;10135;50.702;7.276;2024-01-30T12:06:18;14.30;62.60
19947;DHT22;10135;50.702;7.276;2024-01-30T12:08:19;14.30;62.60
19947;DHT22;10135;50.702;7.276;2024-01-30T12:10:21;14.30;62.60
19947;DHT22;10135;50.702;7.276;2024-01-30T12:12:26;14.30;62.60
19947;DHT22;10135;50.702;7.276;2024-01-30T12:14:28;14.20;62.50
19947;DHT22;10135;50.702;7.276;2024-01-30T12:16:29;14.20;62.50
19947;DHT22;10135;50.702;7.276;2024-01-30T12:18:30;14.20;62.40
19947;DHT22;10135;50.702;7.276;2024-01-30T12:20:30;14.20;62.40
19947;DHT22;10135;50.702;7.276;2024-01-30T12:22:31;14.20;62.40
19947;DHT22;10135;50.702;7.276;2024-01-30T12:24:32;14.10;62.30
19947;DHT22;10135;50.702;7.276;2024-01-30T12:26:32;14.10;62.40
19947;DHT22;10135;50.702;7.276;2024-01-30T12:28:33;14.00;62.20
19947;DHT22;10135;50.702;7.276;2024-01-30T12:30:34;14.00;62.20
19947;DHT22;10135;50.702;7.276;2024-01-30T12:32:39;14.00;63.00
19947;DHT22;10135;50.702;7.276;2024-01-30T12:34:46;14.00;62.30
19947;DHT22;10135;50.702;7.276;2024-01-30T12:36:47;13.90;62.30
19947;DHT22;10135;50.702;7.276;2024-01-30T12:38:50;13.90;62.30
19947;DHT22;10135;50.702;7.276;2024-01-30T12:40:59;13.90;62.30
19947;DHT22;10135;50.702;7.276;2024-01-30T12:43:00;13.90;62.30
19947;DHT22;10135;50.702;7.276;2024-01-30T12:45:04;13.90;62.30
19947;DHT22;10135;50.702;7.276;2024-01-30T12:47:06;13.80;62.30
19947;DHT22;10135;50.702;7.276;2024-01-30T12:49:09;13.80;62.40
19947;DHT22;10135;50.702;7.276;2024-01-30T12:51:10;13.80;62.40
19947;DHT22;10135;50.702;7.276;2024-01-30T12:53:11;13.80;62.40
19947;DHT22;10135;50.702;7.276;2024-01-30T12:55:13;13.80;62.40
19947;DHT22;10135;50.702;7.276;2024-01-30T12:57:13;13.80;62.50
19947;DHT22;10135;50.702;7.276;2024-01-30T12:59:14;13.80;62.30
19947;DHT22;10135;50.702;7.276;2024-01-30T13:01:15;13.80;62.50
19947;DHT22;10135;50.702;7.276;2024-01-30T13:03:15;13.70;62.40
19947;DHT22;10135;50.702;7.276;2024-01-30T13:05:16;13.70;62.40
19947;DHT22;10135;50.702;7.276;2024-01-30T13:07:17;13.70;62.40
19947;DHT22;10135;50.702;7.276;2024-01-30T13:09:18;13.70;62.40
19947;DHT22;10135;50.702;7.276;2024-01-30T13:11:19;13.70;62.40
19947;DHT22;10135;50.702;7.276;2024-01-30T13:13:20;13.70;62.50
19947;DHT22;10135;50.702;7.276;2024-01-30T13:15:20;13.70;62.50
19947;DHT22;10135;50.702;7.276;2024-01-30T13:17:23;13.70;62.50
19947;DHT22;10135;50.702;7.276;2024-01-30T13:19:23;13.60;62.40
19947;DHT22;10135;50.702;7.276;2024-01-30T13:21:24;13.60;62.40
19947;DHT22;10135;50.702;7.276;2024-01-30T13:23:24;13.70;62.50
19947;DHT22;10135;50.702;7.276;2024-01-30T13:25:25;13.60;62.40
19947;DHT22;10135;50.702;7.276;2024-01-30T13:27:26;13.60;62.40
19947;DHT22;10135;50.702;7.276;2024-01-30T13:29:27;13.60;62.40
19947;DHT22;10135;50.702;7.276;2024-01-30T13:31:27;13.60;63.10
19947;DHT22;10135;50.702;7.276;2024-01-30T13:33:28;13.60;62.50
19947;DHT22;10135;50.702;7.276;2024-01-30T13:35:29;13.60;62.50
19947;DHT22;10135;50.702;7.276;2024-01-30T13:37:29;13.60;62.50
19947;DHT22;10135;50.702;7.276;2024-01-30T13:39:30;13.60;62.40
19947;DHT22;10135;50.702;7.276;2024-01-30T13:41:31;13.60;62.60
19947;DHT22;10135;50.702;7.276;2024-01-30T13:43:32;13.60;62.60
19947;DHT22;10135;50.702;7.276;2024-01-30T13:45:33;13.60;62.50
19947;DHT22;10135;50.702;7.276;2024-01-30T13:47:33;13.50;62.50
19947;DHT22;10135;50.702;7.276;2024-01-30T13:49:34;13.50;62.40
19947;DHT22;10135;50.702;7.276;2024-01-30T13:51:35;13.50;62.40
19947;DHT22;10135;50.702;7.276;2024-01-30T13:53:35;13.50;62.40
19947;DHT22;10135;50.702;7.276;2024-01-30T13:55:36;13.50;62.50
19947;DHT22;10135;50.702;7.276;2024-01-30T13:57:37;13.50;62.60
19947;DHT22;10135;50.702;7.276;2024-01-30T13:59:38;13.50;62.60
19947;DHT22;10135;50.702;7.276;2024-01-30T14:01:39;13.50;62.60
19947;DHT22;10135;50.702;7.276;2024-01-30T14:03:39;13.50;62.60
19947;DHT22;10135;50.702;7.276;2024-01-30T14:05:40;13.60;62.70
19947;DHT22;10135;50.702;7.276;2024-01-30T14:07:42;13.60;62.60
19947;DHT22;10135;50.702;7.276;2024-01-30T14:09:44;13.60;62.70
19947;DHT22;10135;50.702;7.276;2024-01-30T14:11:45;13.60;62.70
19947;DHT22;10135;50.702;7.276;2024-01-30T14:13:45;13.60;62.60
19947;DHT22;10135;50.702;7.276;2024-01-30T14:15:46;13.60;62.60
19947;DHT22;10135;50.702;7.276;2024-01-30T14:17:47;13.60;62.70
19947;DHT22;10135;50.702;7.276;2024-01-30T14:19:48;13.60;62.70
19947;DHT22;10135;50.702;7.276;2024-01-30T14:21:49;13.60;62.70
19947;DHT22;10135;50.702;7.276;2024-01-30T14:23:50;13.60;62.70
19947;DHT22;10135;50.702;7.276;2024-01-30T14:25:50;13.70;62.90
19947;DHT22;10135;50.702;7.276;2024-01-30T14:27:52;13.70;62.80
19947;DHT22;10135;50.702;7.276;2024-01-30T14:29:52;13.70;62.80
19947;DHT22;10135;50.702;7.276;2024-01-30T14:31:53;13.70;63.50
19947;DHT22;10135;50.702;7.276;2024-01-30T14:33:55;13.70;62.80
19947;DHT22;10135;50.702;7.276;2024-01-30T14:35:55;13.70;62.70
19947;DHT22;10135;50.702;7.276;2024-01-30T14:37:56;13.80;62.70
19947;DHT22;10135;50.702;7.276;2024-01-30T14:39:57;13.80;62.70
19947;DHT22;10135;50.702;7.276;2024-01-30T14:41:58;13.80;62.70
19947;DHT22;10135;50.702;7.276;2024-01-30T14:43:58;13.80;62.60
19947;DHT22;10135;50.702;7.276;2024-01-30T14:45:59;13.80;62.70
19947;DHT22;10135;50.702;7.276;2024-01-30T14:48:00;13.80;62.70
19947;DHT22;10135;50.702;7.276;2024-01-30T14:50:01;13.80;62.60
19947;DHT22;10135;50.702;7.276;2024-01-30T14:52:02;13.80;62.70
19947;DHT22;10135;50.702;7.276;2024-01-30T14:54:04;13.80;62.70
19947;DHT22;10135;50.702;7.276;2024-01-30T14:56:05;13.80;62.70
19947;DHT22;10135;50.702;7.276;2024-01-30T14:58:06;13.90;62.70
19947;DHT22;10135;50.702;7.276;2024-01-30T15:00:07;13.80;62.70
19947;DHT22;10135;50.702;7.276;2024-01-30T15:02:09;13.90;62.70
19947;DHT22;10135;50.702;7.276;2024-01-30T15:04:09;13.90;62.70
19947;DHT22;10135;50.702;7.276;2024-01-30T15:06:12;13.90;62.90
19947;DHT22;10135;50.702;7.276;2024-01-30T15:08:13;13.90;62.90
19947;DHT22;10135;50.702;7.276;2024-01-30T15:10:14;14.00;62.90
19947;DHT22;10135;50.702;7.276;2024-01-30T15:12:15;13.90;62.80
19947;DHT22;10135;50.702;7.276;2024-01-30T15:14:15;13.90;62.80
19947;DHT22;10135;50.702;7.276;2024-01-30T15:16:16;14.00;62.90
19947;DHT22;10135;50.702;7.276;2024-01-30T15:18:17;14.00;62.90
19947;DHT22;10135;50.702;7.276;2024-01-30T15:20:17;14.00;62.90
19947;DHT22;10135;50.702;7.276;2024-01-30T15:22:18;14.00;62.90
19947;DHT22;10135;50.702;7.276;2024-01-30T15:24:19;14.00;62.80
19947;DHT22;10135;50.702;7.276;2024-01-30T15:26:24;14.10;62.90
19947;DHT22;10135;50.702;7.276;2024-01-30T15:28:36;14.10;62.90
19947;DHT22;10135;50.702;7.276;2024-01-30T15:30:37;14.10;62.90
19947;DHT22;10135;50.702;7.276;2024-01-30T15:32:38;14.10;62.70
19947;DHT22;10135;50.702;7.276;2024-01-30T15:34:39;14.10;62.80
19947;DHT22;10135;50.702;7.276;2024-01-30T15:36:39;14.10;62.70
19947;DHT22;10135;50.702;7.276;2024-01-30T15:38:41;14.10;62.70
19947;DHT22;10135;50.702;7.276;2024-01-30T15:40:42;14.10;62.70
19947;DHT22;10135;50.702;7.276;2024-01-30T15:42:42;14.10;62.70
19947;DHT22;10135;50.702;7.276;2024-01-30T15:44:43;14.10;62.70
19947;DHT22;10135;50.702;7.276;2024-01-30T15:46:44;14.10;62.70
19947;DHT22;10135;50.702;7.276;2024-01-30T15:48:45;14.10;62.90
19947;DHT22;10135;50.702;7.276;2024-01-30T15:50:46;14.20;62.80
19947;DHT22;10135;50.702;7.276;2024-01-30T15:52:46;14.10;62.70
19947;DHT22;10135;50.702;7.276;2024-01-30T15:54:47;14.20;62.70
19947;DHT22;10135;50.702;7.276;2024-01-30T15:56:48;14.10;62.70
19947;DHT22;10135;50.702;7.276;2024-01-30T15:58:48;14.20;62.80
19947;DHT22;10135;50.702;7.276;2024-01-30T16:00:50;14.10;62.70
19947;DHT22;10135;50.702;7.276;2024-01-30T16:02:50;14.10;62.70
19947;DHT22;10135;50.702;7.276;2024-01-30T16:04:51;14.10;62.70
19947;DHT22;10135;50.702;7.276;2024-01-30T16:06:52;14.10;62.80
19947;DHT22;10135;50.702;7.276;2024-01-30T16:08:52;14.10;62.90
19947;DHT22;10135;50.702;7.276;2024-01-30T16:10:53;14.10;62.90
19947;DHT22;10135;50.702;7.276;2024-01-30T16:12:54;14.10;62.90
19947;DHT22;10135;50.702;7.276;2024-01-30T16:14:54;14.20;62.90
19947;DHT22;10135;50.702;7.276;2024-01-30T16:16:55;14.10;62.90
19947;DHT22;10135;50.702;7.276;2024-01-30T16:18:56;14.20;62.90
19947;DHT22;10135;50.702;7.276;2024-01-30T16:20:57;14.20;62.90
19947;DHT22;10135;50.702;7.276;2024-01-30T16:22:58;14.20;62.90
19947;DHT22;10135;50.702;7.276;2024-01-30T16:24:58;14.20;62.80
19947;DHT22;10135;50.702;7.276;2024-01-30T16:26:59;14.20;62.80
19947;DHT22;10135;50.702;7.276;2024-01-30T16:29:00;14.20;62.90
19947;DHT22;10135;50.702;7.276;2024-01-30T16:31:00;14.20;62.90
19947;DHT22;10135;50.702;7.276;2024-01-30T16:33:02;14.20;62.90
19947;DHT22;10135;50.702;7.276;2024-01-30T16:35:03;14.20;62.90
19947;DHT22;10135;50.702;7.276;2024-01-30T16:37:05;14.20;62.90
19947;DHT22;10135;50.702;7.276;2024-01-30T16:39:06;14.20;62.90
19947;DHT22;10135;50.702;7.276;2024-01-30T16:41:06;14.20;62.90
19947;DHT22;10135;50.702;7.276;2024-01-30T16:43:07;14.20;63.00
19947;DHT22;10135;50.702;7.276;2024-01-30T16:45:08;14.20;62.90
19947;DHT22;10135;50.702;7.276;2024-01-30T16:47:09;14.20;63.00
19947;DHT22;10135;50.702;7.276;2024-01-30T16:49:10;14.20;63.00
19947;DHT22;10135;50.702;7.276;2024-01-30T16:51:11;14.20;62.90
19947;DHT22;10135;50.702;7.276;2024-01-30T16:53:11;14.20;62.90
19947;DHT22;10135;50.702;7.276;2024-01-30T16:55:13;14.20;63.00
19947;DHT22;10135;50.702;7.276;2024-01-30T16:57:13;14.20;63.00
19947;DHT22;10135;50.702;7.276;2024-01-30T16:59:15;14.20;62.90
19947;DHT22;10135;50.702;7.276;2024-01-30T17:01:16;14.10;63.40
19947;DHT22;10135;50.702;7.276;2024-01-30T17:03:17;14.20;63.20
19947;DHT22;10135;50.702;7.276;2024-01-30T17:05:18;14.20;63.10
19947;DHT22;10135;50.702;7.276;2024-01-30T17:07:18;14.20;63.10
19947;DHT22;10135;50.702;7.276;2024-01-30T17:09:19;14.20;63.10
19947;DHT22;10135;50.702;7.276;2024-01-30T17:11:20;14.20;63.00
19947;DHT22;10135;50.702;7.276;2024-01-30T17:13:21;14.20;63.00
19947;DHT22;10135;50.702;7.276;2024-01-30T17:15:21;14.20;63.00
19947;DHT22;10135;50.702;7.276;2024-01-30T17:17:22;14.20;63.10
19947;DHT22;10135;50.702;7.276;2024-01-30T17:19:23;14.20;63.10
19947;DHT22;10135;50.702;7.276;2024-01-30T17:21:24;14.30;63.10
19947;DHT22;10135;50.702;7.276;2024-01-30T17:23:25;14.20;63.10
19947;DHT22;10135;50.702;7.276;2024-01-30T17:25:26;14.20;63.10
19947;DHT22;10135;50.702;7.276;2024-01-30T17:27:26;14.20;63.10
19947;DHT22;10135;50.702;7.276;2024-01-30T17:29:27;14.20;63.10
19947;DHT22;10135;50.702;7.276;2024-01-30T17:31:28;14.20;63.10
19947;DHT22;10135;50.702;7.276;2024-01-30T17:33:30;14.20;63.10
19947;DHT22;10135;50.702;7.276;2024-01-30T17:35:31;14.10;63.00
19947;DHT22;10135;50.702;7.276;2024-01-30T17:37:32;14.20;63.20
19947;DHT22;10135;50.702;7.276;2024-01-30T17:39:35;14.10;63.10
19947;DHT22;10135;50.702;7.276;2024-01-30T17:41:35;14.10;63.20
19947;DHT22;10135;50.702;7.276;2024-01-30T17:43:36;14.10;63.20
19947;DHT22;10135;50.702;7.276;2024-01-30T17:45:37;14.10;63.20
19947;DHT22;10135;50.702;7.276;2024-01-30T17:47:38;14.00;63.20
19947;DHT22;10135;50.702;7.276;2024-01-30T17:49:39;14.00;63.30
19947;DHT22;10135;50.702;7.276;2024-01-30T17:51:39;14.00;63.20
19947;DHT22;10135;50.702;7.276;2024-01-30T17:53:40;14.00;63.20
19947;DHT22;10135;50.702;7.276;2024-01-30T17:55:41;13.90;63.00
19947;DHT22;10135;50.702;7.276;2024-01-30T17:57:42;13.90;63.00
19947;DHT22;10135;50.702;7.276;2024-01-30T17:59:43;13.90;63.00
19947;DHT22;10135;50.702;7.276;2024-01-30T18:01:46;13.80;62.90
19947;DHT22;10135;50.702;7.276;2024-01-30T18:03:48;13.80;62.90
19947;DHT22;10135;50.702;7.276;2024-01-30T18:05:52;13.80;63.00
19947;DHT22;10135;50.702;7.276;2024-01-30T18:07:55;13.80;62.90
19947;DHT22;10135;50.702;7.276;2024-01-30T18:09:56;13.70;62.80
19947;DHT22;10135;50.702;7.276;2024-01-30T18:11:56;13.70;62.80
19947;DHT22;10135;50.702;7.276;2024-01-30T18:13:57;13.60;62.70
19947;DHT22;10135;50.702;7.276;2024-01-30T18:15:59;13.60;62.80
19947;DHT22;10135;50.702;7.276;2024-01-30T18:18:00;13.60;62.70
19947;DHT22;10135;50.702;7.276;2024-01-30T18:20:01;13.60;62.70
19947;DHT22;10135;50.702;7.276;2024-01-30T18:22:01;13.60;63.50
19947;DHT22;10135;50.702;7.276;2024-01-30T18:24:02;13.50;62.70
19947;DHT22;10135;50.702;7.276;2024-01-30T18:26:03;13.60;63.40
19947;DHT22;10135;50.702;7.276;2024-01-30T18:28:04;13.50;62.60
19947;DHT22;10135;50.702;7.276;2024-01-30T18:30:06;13.50;62.60
19947;DHT22;10135;50.702;7.276;2024-01-30T18:32:07;13.50;62.60
19947;DHT22;10135;50.702;7.276;2024-01-30T18:34:08;13.50;62.60
19947;DHT22;10135;50.702;7.276;2024-01-30T18:36:08;13.50;62.60
19947;DHT22;10135;50.702;7.276;2024-01-30T18:38:09;13.50;62.60
19947;DHT22;10135;50.702;7.276;2024-01-30T18:40:10;13.50;62.50
19947;DHT22;10135;50.702;7.276;2024-01-30T18:42:11;13.40;62.40
19947;DHT22;10135;50.702;7.276;2024-01-30T18:44:12;13.40;62.40
19947;DHT22;10135;50.702;7.276;2024-01-30T18:46:13;13.40;62.40